CES1732 ZLDH-ZLXN
Flight info
| Callsign | CES1732 |
|---|---|
| Flight time | 1h 18m |
| Altitude | 3310 |
| Route | VIKUP W191 NODID |
| Aircraft | A320/L-SDE3FGHIRWY/LB1D1 |
Departure
| Time | 2026-04-13 13:46 |
|---|---|
| Airport | Dunhuang Mogao International Airport (ZLDH) |
Arrival
| Time | 2026-04-13 15:04 |
|---|---|
| Airport | Xining Caojiabao International Airport (ZLXN) |
| Time | Latitude | Longitude | Altitude | Speed | Heading |
|---|---|---|---|---|---|
| 2026-04-13 13:37 | 40.16494 | 94.80542 | 3699 ft | 1 kts | 354° |
| 2026-04-13 13:38 | 40.16476 | 94.80544 | 3706 ft | 4 kts | 353° |
| 2026-04-13 13:38 | 40.16449 | 94.80549 | 3705 ft | 4 kts | 349° |
| 2026-04-13 13:38 | 40.16422 | 94.80557 | 3707 ft | 4 kts | 340° |
| 2026-04-13 13:39 | 40.16400 | 94.80573 | 3701 ft | 4 kts | 302° |
| 2026-04-13 13:39 | 40.16395 | 94.80586 | 3701 ft | 0 kts | 264° |
| 2026-04-13 13:41 | 40.16395 | 94.80579 | 3701 ft | 4 kts | 264° |
| 2026-04-13 13:41 | 40.16389 | 94.80507 | 3703 ft | 8 kts | 264° |
| 2026-04-13 13:42 | 40.16384 | 94.80445 | 3700 ft | 6 kts | 264° |
| 2026-04-13 13:42 | 40.16381 | 94.80399 | 3701 ft | 4 kts | 264° |
| 2026-04-13 13:42 | 40.16376 | 94.80336 | 3701 ft | 12 kts | 264° |
| 2026-04-13 13:42 | 40.16356 | 94.80237 | 3700 ft | 8 kts | 218° |
| 2026-04-13 13:43 | 40.16304 | 94.80240 | 3700 ft | 8 kts | 171° |
| 2026-04-13 13:43 | 40.16237 | 94.80253 | 3699 ft | 10 kts | 173° |
| 2026-04-13 13:43 | 40.16162 | 94.80263 | 3695 ft | 12 kts | 173° |
| 2026-04-13 13:43 | 40.16111 | 94.80211 | 3693 ft | 10 kts | 264° |
| 2026-04-13 13:44 | 40.16103 | 94.80090 | 3693 ft | 19 kts | 264° |
| 2026-04-13 13:44 | 40.16088 | 94.79903 | 3692 ft | 21 kts | 264° |
| 2026-04-13 13:44 | 40.16073 | 94.79704 | 3691 ft | 22 kts | 263° |
| 2026-04-13 13:44 | 40.16056 | 94.79500 | 3691 ft | 23 kts | 265° |
| 2026-04-13 13:45 | 40.16058 | 94.79359 | 3692 ft | 10 kts | 280° |
| 2026-04-13 13:45 | 40.16049 | 94.79304 | 3692 ft | 2 kts | 180° |
| 2026-04-13 13:45 | 40.16045 | 94.79320 | 3692 ft | 1 kts | 99° |
| 2026-04-13 13:45 | 40.16045 | 94.79358 | 3691 ft | 12 kts | 84° |
| 2026-04-13 13:46 | 40.16071 | 94.79679 | 3691 ft | 70 kts | 84° |
| 2026-04-13 13:46 | 40.16144 | 94.80599 | 3699 ft | 131 kts | 84° |
| 2026-04-13 13:46 | 40.16258 | 94.82012 | 3716 ft | 178 kts | 83° |
| 2026-04-13 13:46 | 40.16379 | 94.83663 | 4252 ft | 185 kts | 83° |
| 2026-04-13 13:47 | 40.16493 | 94.85363 | 4934 ft | 190 kts | 83° |
| 2026-04-13 13:47 | 40.16620 | 94.87146 | 5295 ft | 206 kts | 82° |
| 2026-04-13 13:47 | 40.16781 | 94.89115 | 5502 ft | 230 kts | 82° |
| 2026-04-13 13:47 | 40.16966 | 94.91309 | 5850 ft | 254 kts | 82° |
| 2026-04-13 13:48 | 40.17165 | 94.93706 | 6329 ft | 273 kts | 82° |
| 2026-04-13 13:48 | 40.17364 | 94.96208 | 7077 ft | 279 kts | 83° |
| 2026-04-13 13:48 | 40.17560 | 94.98749 | 7878 ft | 283 kts | 83° |
| 2026-04-13 13:48 | 40.17759 | 95.01327 | 8684 ft | 287 kts | 84° |
| 2026-04-13 13:49 | 40.17960 | 95.03946 | 9487 ft | 292 kts | 85° |
| 2026-04-13 13:49 | 40.18141 | 95.06608 | 10243 ft | 296 kts | 90° |
| 2026-04-13 13:49 | 40.17769 | 95.09287 | 10684 ft | 311 kts | 115° |
| 2026-04-13 13:49 | 40.16440 | 95.11597 | 10898 ft | 332 kts | 142° |
| 2026-04-13 13:50 | 40.14313 | 95.12896 | 11177 ft | 348 kts | 170° |
| 2026-04-13 13:50 | 40.11879 | 95.13266 | 11730 ft | 356 kts | 175° |
| 2026-04-13 13:50 | 40.09392 | 95.13584 | 12379 ft | 361 kts | 175° |
| 2026-04-13 13:50 | 40.06871 | 95.13908 | 13038 ft | 366 kts | 174° |
| 2026-04-13 13:51 | 40.04323 | 95.14238 | 13730 ft | 371 kts | 174° |
| 2026-04-13 13:51 | 40.01739 | 95.14576 | 14363 ft | 375 kts | 174° |
| 2026-04-13 13:51 | 39.99135 | 95.14918 | 14986 ft | 378 kts | 174° |
| 2026-04-13 13:51 | 39.96541 | 95.15504 | 15599 ft | 381 kts | 163° |
| 2026-04-13 13:52 | 39.94084 | 95.16835 | 16210 ft | 385 kts | 150° |
| 2026-04-13 13:52 | 39.91917 | 95.18894 | 16812 ft | 387 kts | 136° |
| 2026-04-13 13:52 | 39.90169 | 95.21572 | 17395 ft | 390 kts | 122° |
| 2026-04-13 13:52 | 39.88885 | 95.24686 | 17969 ft | 393 kts | 115° |
| 2026-04-13 13:53 | 39.87682 | 95.27903 | 18545 ft | 396 kts | 115° |
| 2026-04-13 13:53 | 39.86467 | 95.31127 | 19017 ft | 400 kts | 115° |
| 2026-04-13 13:53 | 39.85230 | 95.34395 | 19495 ft | 404 kts | 115° |
| 2026-04-13 13:53 | 39.83978 | 95.37692 | 19948 ft | 408 kts | 116° |
| 2026-04-13 13:54 | 39.82714 | 95.41019 | 20404 ft | 412 kts | 116° |
| 2026-04-13 13:54 | 39.81435 | 95.44377 | 20860 ft | 416 kts | 116° |
| 2026-04-13 13:54 | 39.80143 | 95.47765 | 21299 ft | 421 kts | 116° |
| 2026-04-13 13:54 | 39.78837 | 95.51194 | 21730 ft | 425 kts | 116° |
| 2026-04-13 13:55 | 39.77520 | 95.54653 | 22167 ft | 429 kts | 116° |
| 2026-04-13 13:55 | 39.76193 | 95.58143 | 22598 ft | 433 kts | 116° |
| 2026-04-13 13:55 | 39.74860 | 95.61666 | 23027 ft | 436 kts | 116° |
| 2026-04-13 13:55 | 39.73519 | 95.65221 | 23419 ft | 441 kts | 117° |
| 2026-04-13 13:56 | 39.72164 | 95.68817 | 23815 ft | 444 kts | 117° |
| 2026-04-13 13:56 | 39.70803 | 95.72435 | 24147 ft | 448 kts | 117° |
| 2026-04-13 13:56 | 39.69431 | 95.76083 | 24486 ft | 451 kts | 117° |
| 2026-04-13 13:56 | 39.68047 | 95.79750 | 24819 ft | 454 kts | 117° |
| 2026-04-13 13:57 | 39.66627 | 95.83496 | 25146 ft | 458 kts | 117° |
| 2026-04-13 13:57 | 39.65216 | 95.87205 | 25473 ft | 461 kts | 117° |
| 2026-04-13 13:57 | 39.63786 | 95.90945 | 25797 ft | 464 kts | 117° |
| 2026-04-13 13:57 | 39.62351 | 95.94700 | 26110 ft | 467 kts | 117° |
| 2026-04-13 13:58 | 39.60902 | 95.98490 | 26439 ft | 470 kts | 117° |
| 2026-04-13 13:58 | 39.59446 | 96.02293 | 26770 ft | 473 kts | 118° |
| 2026-04-13 13:58 | 39.57976 | 96.06129 | 27096 ft | 476 kts | 118° |
| 2026-04-13 13:58 | 39.56499 | 96.09981 | 27413 ft | 479 kts | 118° |
| 2026-04-13 13:59 | 39.55004 | 96.13852 | 27725 ft | 482 kts | 118° |
| 2026-04-13 13:59 | 39.53486 | 96.17728 | 28017 ft | 485 kts | 118° |
| 2026-04-13 13:59 | 39.51940 | 96.21632 | 28315 ft | 488 kts | 119° |
| 2026-04-13 13:59 | 39.50382 | 96.25547 | 28601 ft | 491 kts | 119° |
| 2026-04-13 14:00 | 39.48817 | 96.29483 | 28882 ft | 493 kts | 119° |
| 2026-04-13 14:00 | 39.47241 | 96.33449 | 29160 ft | 496 kts | 119° |
| 2026-04-13 14:00 | 39.45660 | 96.37433 | 29436 ft | 499 kts | 119° |
| 2026-04-13 14:00 | 39.44074 | 96.41432 | 29694 ft | 502 kts | 119° |
| 2026-04-13 14:01 | 39.42477 | 96.45465 | 29952 ft | 504 kts | 119° |
| 2026-04-13 14:01 | 39.40874 | 96.49497 | 30331 ft | 504 kts | 119° |
| 2026-04-13 14:01 | 39.39267 | 96.53526 | 30662 ft | 504 kts | 119° |
| 2026-04-13 14:01 | 39.37657 | 96.57562 | 31016 ft | 504 kts | 119° |
| 2026-04-13 14:02 | 39.36595 | 96.60228 | 31237 ft | 504 kts | 119° |
| 2026-04-13 14:02 | 39.34989 | 96.64250 | 31576 ft | 503 kts | 119° |
| 2026-04-13 14:02 | 39.33380 | 96.68270 | 31932 ft | 502 kts | 119° |
| 2026-04-13 14:02 | 39.31771 | 96.72282 | 32268 ft | 501 kts | 119° |
| 2026-04-13 14:03 | 39.30165 | 96.76279 | 32595 ft | 501 kts | 119° |
| 2026-04-13 14:03 | 39.28560 | 96.80265 | 32940 ft | 500 kts | 119° |
| 2026-04-13 14:03 | 39.26954 | 96.84243 | 33255 ft | 500 kts | 119° |
| 2026-04-13 14:03 | 39.25358 | 96.88218 | 33362 ft | 498 kts | 119° |
| 2026-04-13 14:04 | 39.23780 | 96.92196 | 33376 ft | 497 kts | 119° |
| 2026-04-13 14:04 | 39.20665 | 97.00137 | 33365 ft | 496 kts | 118° |
| 2026-04-13 14:05 | 39.17546 | 97.08043 | 33367 ft | 494 kts | 119° |
| 2026-04-13 14:05 | 39.14409 | 97.15919 | 33368 ft | 493 kts | 119° |
| 2026-04-13 14:06 | 39.11264 | 97.23775 | 33374 ft | 493 kts | 119° |
| 2026-04-13 14:06 | 39.08123 | 97.31617 | 33376 ft | 493 kts | 119° |
| 2026-04-13 14:07 | 39.04964 | 97.39497 | 33370 ft | 492 kts | 119° |
| 2026-04-13 14:07 | 39.01837 | 97.47319 | 33371 ft | 491 kts | 119° |
| 2026-04-13 14:08 | 38.98701 | 97.55126 | 33375 ft | 491 kts | 120° |
| 2026-04-13 14:08 | 38.95546 | 97.62902 | 33368 ft | 490 kts | 120° |
| 2026-04-13 14:09 | 38.92390 | 97.70650 | 33365 ft | 490 kts | 120° |
| 2026-04-13 14:09 | 38.89211 | 97.78374 | 33361 ft | 489 kts | 120° |
| 2026-04-13 14:10 | 38.86010 | 97.86069 | 33360 ft | 488 kts | 121° |
| 2026-04-13 14:10 | 38.82806 | 97.93745 | 33358 ft | 488 kts | 121° |
| 2026-04-13 14:11 | 38.79613 | 98.01408 | 33357 ft | 487 kts | 121° |
| 2026-04-13 14:11 | 38.76420 | 98.09065 | 33350 ft | 487 kts | 121° |
| 2026-04-13 14:12 | 38.73231 | 98.16711 | 33347 ft | 487 kts | 121° |
| 2026-04-13 14:12 | 38.70027 | 98.24342 | 33339 ft | 487 kts | 121° |
| 2026-04-13 14:13 | 38.66808 | 98.31964 | 33336 ft | 486 kts | 121° |
| 2026-04-13 14:13 | 38.63594 | 98.39587 | 33331 ft | 487 kts | 121° |
| 2026-04-13 14:14 | 38.58778 | 98.51028 | 33317 ft | 488 kts | 121° |
| 2026-04-13 14:14 | 38.55531 | 98.58706 | 33326 ft | 488 kts | 121° |
| 2026-04-13 14:15 | 38.52295 | 98.66325 | 33324 ft | 488 kts | 121° |
| 2026-04-13 14:15 | 38.49039 | 98.73935 | 33328 ft | 488 kts | 122° |
| 2026-04-13 14:16 | 38.45790 | 98.81548 | 33329 ft | 489 kts | 121° |
| 2026-04-13 14:16 | 38.42542 | 98.89169 | 33328 ft | 489 kts | 122° |
| 2026-04-13 14:17 | 38.39261 | 98.96796 | 33327 ft | 489 kts | 122° |
| 2026-04-13 14:17 | 38.35998 | 99.04344 | 33327 ft | 489 kts | 122° |
| 2026-04-13 14:18 | 38.32726 | 99.11952 | 33331 ft | 489 kts | 122° |
| 2026-04-13 14:18 | 38.29447 | 99.19546 | 33327 ft | 489 kts | 122° |
| 2026-04-13 14:19 | 38.26163 | 99.27129 | 33328 ft | 489 kts | 122° |
| 2026-04-13 14:19 | 38.22879 | 99.34707 | 33329 ft | 489 kts | 122° |
| 2026-04-13 14:20 | 38.19581 | 99.42281 | 33328 ft | 490 kts | 123° |
| 2026-04-13 14:20 | 38.16278 | 99.49858 | 33326 ft | 490 kts | 122° |
| 2026-04-13 14:21 | 38.13032 | 99.57548 | 33324 ft | 491 kts | 122° |
| 2026-04-13 14:21 | 38.09838 | 99.65217 | 33322 ft | 491 kts | 122° |
| 2026-04-13 14:22 | 38.06620 | 99.72875 | 33319 ft | 492 kts | 122° |
| 2026-04-13 14:22 | 38.03383 | 99.80521 | 33316 ft | 492 kts | 122° |
| 2026-04-13 14:23 | 38.00130 | 99.88149 | 33313 ft | 492 kts | 123° |
| 2026-04-13 14:23 | 37.96862 | 99.95793 | 33309 ft | 493 kts | 123° |
| 2026-04-13 14:24 | 37.93591 | 100.03441 | 33306 ft | 494 kts | 123° |
| 2026-04-13 14:24 | 37.90316 | 100.11089 | 33304 ft | 494 kts | 123° |
| 2026-04-13 14:25 | 37.87037 | 100.18751 | 33301 ft | 495 kts | 123° |
| 2026-04-13 14:25 | 37.83746 | 100.26416 | 33306 ft | 496 kts | 123° |
| 2026-04-13 14:26 | 37.80435 | 100.34072 | 33307 ft | 496 kts | 123° |
| 2026-04-13 14:26 | 37.77117 | 100.41724 | 33294 ft | 496 kts | 123° |
| 2026-04-13 14:27 | 37.73803 | 100.49376 | 33295 ft | 497 kts | 123° |
| 2026-04-13 14:27 | 37.70481 | 100.57023 | 33267 ft | 498 kts | 123° |
| 2026-04-13 14:28 | 37.68810 | 100.60866 | 32776 ft | 499 kts | 123° |
| 2026-04-13 14:28 | 37.67142 | 100.64699 | 32245 ft | 498 kts | 123° |
| 2026-04-13 14:28 | 37.65453 | 100.68575 | 31729 ft | 497 kts | 123° |
| 2026-04-13 14:28 | 37.63804 | 100.72400 | 31225 ft | 497 kts | 123° |
| 2026-04-13 14:29 | 37.62177 | 100.76248 | 30733 ft | 497 kts | 122° |
| 2026-04-13 14:29 | 37.60568 | 100.80104 | 30235 ft | 497 kts | 122° |
| 2026-04-13 14:29 | 37.58963 | 100.83953 | 29666 ft | 495 kts | 122° |
| 2026-04-13 14:29 | 37.57366 | 100.87777 | 29106 ft | 490 kts | 121° |
| 2026-04-13 14:30 | 37.55780 | 100.91562 | 28554 ft | 486 kts | 121° |
| 2026-04-13 14:30 | 37.54203 | 100.95308 | 28022 ft | 481 kts | 121° |
| 2026-04-13 14:30 | 37.52639 | 100.99006 | 27481 ft | 476 kts | 121° |
| 2026-04-13 14:30 | 37.51086 | 101.02665 | 26969 ft | 472 kts | 121° |
| 2026-04-13 14:31 | 37.49542 | 101.06290 | 26448 ft | 467 kts | 121° |
| 2026-04-13 14:31 | 37.48014 | 101.09872 | 25947 ft | 462 kts | 121° |
| 2026-04-13 14:31 | 37.46499 | 101.13422 | 25467 ft | 458 kts | 121° |
| 2026-04-13 14:31 | 37.45003 | 101.16930 | 24982 ft | 453 kts | 120° |
| 2026-04-13 14:32 | 37.43523 | 101.20409 | 24513 ft | 448 kts | 120° |
| 2026-04-13 14:32 | 37.42061 | 101.23847 | 24049 ft | 443 kts | 120° |
| 2026-04-13 14:32 | 37.40612 | 101.27247 | 23552 ft | 438 kts | 120° |
| 2026-04-13 14:32 | 37.39177 | 101.30611 | 23000 ft | 434 kts | 120° |
| 2026-04-13 14:33 | 37.37758 | 101.33931 | 22475 ft | 430 kts | 120° |
| 2026-04-13 14:33 | 37.36342 | 101.37228 | 21941 ft | 426 kts | 120° |
| 2026-04-13 14:33 | 37.34936 | 101.40492 | 21421 ft | 422 kts | 120° |
| 2026-04-13 14:33 | 37.33547 | 101.43723 | 20915 ft | 419 kts | 120° |
| 2026-04-13 14:34 | 37.32138 | 101.46906 | 20416 ft | 415 kts | 123° |
| 2026-04-13 14:34 | 37.30462 | 101.49828 | 19927 ft | 410 kts | 131° |
| 2026-04-13 14:34 | 37.29189 | 101.51577 | 19604 ft | 407 kts | 137° |
| 2026-04-13 14:34 | 37.27073 | 101.53902 | 19114 ft | 403 kts | 145° |
| 2026-04-13 14:35 | 37.24754 | 101.55829 | 18656 ft | 398 kts | 153° |
| 2026-04-13 14:35 | 37.22312 | 101.57444 | 18144 ft | 396 kts | 155° |
| 2026-04-13 14:35 | 37.19883 | 101.59047 | 17609 ft | 393 kts | 154° |
| 2026-04-13 14:35 | 37.16671 | 101.61185 | 16914 ft | 389 kts | 154° |
| 2026-04-13 14:36 | 37.15090 | 101.62239 | 16570 ft | 388 kts | 154° |
| 2026-04-13 14:36 | 37.12718 | 101.63820 | 16066 ft | 385 kts | 154° |
| 2026-04-13 14:36 | 37.10355 | 101.65387 | 15565 ft | 383 kts | 153° |
| 2026-04-13 14:36 | 37.08006 | 101.66943 | 15080 ft | 380 kts | 153° |
| 2026-04-13 14:37 | 37.05644 | 101.68506 | 14588 ft | 378 kts | 153° |
| 2026-04-13 14:37 | 37.03345 | 101.70028 | 14395 ft | 370 kts | 153° |
| 2026-04-13 14:37 | 37.01103 | 101.71512 | 14391 ft | 368 kts | 153° |
| 2026-04-13 14:37 | 36.98813 | 101.73025 | 14391 ft | 368 kts | 153° |
| 2026-04-13 14:38 | 36.96544 | 101.74519 | 14388 ft | 368 kts | 153° |
| 2026-04-13 14:38 | 36.94280 | 101.76007 | 14376 ft | 363 kts | 153° |
| 2026-04-13 14:38 | 36.92096 | 101.77443 | 14376 ft | 347 kts | 153° |
| 2026-04-13 14:38 | 36.90004 | 101.78819 | 14366 ft | 333 kts | 154° |
| 2026-04-13 14:39 | 36.87995 | 101.80139 | 14362 ft | 320 kts | 154° |
| 2026-04-13 14:39 | 36.86040 | 101.81421 | 14358 ft | 316 kts | 154° |
| 2026-04-13 14:39 | 36.84098 | 101.82691 | 14360 ft | 315 kts | 154° |
| 2026-04-13 14:39 | 36.82095 | 101.83768 | 14351 ft | 312 kts | 168° |
| 2026-04-13 14:40 | 36.79969 | 101.84011 | 14355 ft | 308 kts | 187° |
| 2026-04-13 14:40 | 36.77893 | 101.83380 | 14348 ft | 305 kts | 206° |
| 2026-04-13 14:40 | 36.76138 | 101.81990 | 14328 ft | 293 kts | 224° |
| 2026-04-13 14:40 | 36.74862 | 101.80061 | 14123 ft | 287 kts | 240° |
| 2026-04-13 14:41 | 36.73897 | 101.77901 | 13878 ft | 284 kts | 242° |
| 2026-04-13 14:41 | 36.72936 | 101.75764 | 13612 ft | 281 kts | 241° |
| 2026-04-13 14:41 | 36.71980 | 101.73653 | 13348 ft | 278 kts | 240° |
| 2026-04-13 14:41 | 36.70793 | 101.71778 | 13083 ft | 276 kts | 221° |
| 2026-04-13 14:42 | 36.69176 | 101.70538 | 12827 ft | 273 kts | 201° |
| 2026-04-13 14:42 | 36.67386 | 101.69771 | 12574 ft | 271 kts | 199° |
| 2026-04-13 14:42 | 36.65596 | 101.69063 | 12316 ft | 269 kts | 191° |
| 2026-04-13 14:42 | 36.63761 | 101.69240 | 12065 ft | 267 kts | 157° |
| 2026-04-13 14:43 | 36.62343 | 101.70655 | 11819 ft | 264 kts | 122° |
| 2026-04-13 14:43 | 36.61606 | 101.72723 | 11571 ft | 261 kts | 108° |
| 2026-04-13 14:43 | 36.61064 | 101.74860 | 11401 ft | 255 kts | 108° |
| 2026-04-13 14:43 | 36.60518 | 101.76921 | 11238 ft | 248 kts | 108° |
| 2026-04-13 14:44 | 36.59967 | 101.78923 | 10952 ft | 241 kts | 109° |
| 2026-04-13 14:44 | 36.59429 | 101.80867 | 10646 ft | 234 kts | 108° |
| 2026-04-13 14:44 | 36.58906 | 101.82759 | 10364 ft | 228 kts | 108° |
| 2026-04-13 14:44 | 36.58398 | 101.84599 | 10084 ft | 222 kts | 108° |
| 2026-04-13 14:45 | 36.57897 | 101.86413 | 9785 ft | 216 kts | 108° |
| 2026-04-13 14:45 | 36.57423 | 101.88125 | 9526 ft | 208 kts | 108° |
| 2026-04-13 14:45 | 36.56961 | 101.89795 | 9219 ft | 195 kts | 108° |
| 2026-04-13 14:45 | 36.56532 | 101.91343 | 8949 ft | 184 kts | 108° |
| 2026-04-13 14:46 | 36.56127 | 101.92805 | 8704 ft | 174 kts | 108° |
| 2026-04-13 14:46 | 36.55744 | 101.94186 | 8485 ft | 165 kts | 108° |
| 2026-04-13 14:46 | 36.55384 | 101.95485 | 8283 ft | 156 kts | 108° |
| 2026-04-13 14:46 | 36.55036 | 101.96738 | 8081 ft | 152 kts | 107° |
| 2026-04-13 14:47 | 36.54694 | 101.97972 | 7884 ft | 151 kts | 108° |
| 2026-04-13 14:47 | 36.54353 | 101.99199 | 7702 ft | 149 kts | 108° |
| 2026-04-13 14:47 | 36.54013 | 102.00426 | 7504 ft | 151 kts | 108° |
| 2026-04-13 14:47 | 36.53669 | 102.01652 | 7334 ft | 150 kts | 108° |
| 2026-04-13 14:48 | 36.53338 | 102.02856 | 7232 ft | 143 kts | 108° |
| 2026-04-13 14:48 | 36.52977 | 102.04124 | 7636 ft | 165 kts | 109° |
| 2026-04-13 14:48 | 36.52579 | 102.05574 | 8220 ft | 189 kts | 107° |
| 2026-04-13 14:48 | 36.52161 | 102.07151 | 8877 ft | 193 kts | 108° |
| 2026-04-13 14:49 | 36.51484 | 102.08637 | 9235 ft | 208 kts | 137° |
| 2026-04-13 14:49 | 36.50096 | 102.09305 | 9528 ft | 231 kts | 178° |
| 2026-04-13 14:49 | 36.48556 | 102.08629 | 10004 ft | 246 kts | 216° |
| 2026-04-13 14:49 | 36.47592 | 102.06862 | 10515 ft | 256 kts | 253° |
| 2026-04-13 14:50 | 36.47623 | 102.04663 | 11039 ft | 259 kts | 288° |
| 2026-04-13 14:50 | 36.48301 | 102.02641 | 11180 ft | 250 kts | 290° |
| 2026-04-13 14:50 | 36.48868 | 102.00609 | 11205 ft | 247 kts | 288° |
| 2026-04-13 14:50 | 36.49395 | 101.98578 | 11205 ft | 246 kts | 287° |
| 2026-04-13 14:51 | 36.49914 | 101.96554 | 11196 ft | 245 kts | 287° |
| 2026-04-13 14:51 | 36.50430 | 101.94534 | 11208 ft | 245 kts | 287° |
| 2026-04-13 14:51 | 36.50942 | 101.92521 | 11206 ft | 245 kts | 287° |
| 2026-04-13 14:51 | 36.51452 | 101.90503 | 11201 ft | 244 kts | 287° |
| 2026-04-13 14:52 | 36.51962 | 101.88491 | 11007 ft | 242 kts | 289° |
| 2026-04-13 14:52 | 36.52810 | 101.86744 | 10757 ft | 236 kts | 320° |
| 2026-04-13 14:52 | 36.54217 | 101.85853 | 10544 ft | 221 kts | 353° |
| 2026-04-13 14:52 | 36.55646 | 101.86074 | 10304 ft | 201 kts | 30° |
| 2026-04-13 14:53 | 36.56651 | 101.87190 | 10022 ft | 188 kts | 60° |
| 2026-04-13 14:53 | 36.57062 | 101.88695 | 9599 ft | 185 kts | 88° |
| 2026-04-13 14:53 | 36.56836 | 101.90246 | 9219 ft | 180 kts | 109° |
| 2026-04-13 14:53 | 36.56435 | 101.91683 | 8917 ft | 171 kts | 108° |
| 2026-04-13 14:54 | 36.56062 | 101.93036 | 8693 ft | 160 kts | 108° |
| 2026-04-13 14:54 | 36.55711 | 101.94304 | 8464 ft | 155 kts | 108° |
| 2026-04-13 14:54 | 36.55359 | 101.95575 | 8259 ft | 153 kts | 108° |
| 2026-04-13 14:54 | 36.55015 | 101.96815 | 8070 ft | 151 kts | 108° |
| 2026-04-13 14:55 | 36.54673 | 101.98049 | 7874 ft | 151 kts | 108° |
| 2026-04-13 14:55 | 36.54332 | 101.99274 | 7686 ft | 149 kts | 109° |
| 2026-04-13 14:55 | 36.53993 | 102.00499 | 7499 ft | 149 kts | 108° |
| 2026-04-13 14:55 | 36.53654 | 102.01711 | 7314 ft | 148 kts | 107° |
| 2026-04-13 14:56 | 36.53321 | 102.02901 | 7210 ft | 137 kts | 109° |
| 2026-04-13 14:56 | 36.52976 | 102.04141 | 7409 ft | 169 kts | 107° |
| 2026-04-13 14:56 | 36.52560 | 102.05681 | 7801 ft | 203 kts | 109° |
| 2026-04-13 14:56 | 36.52011 | 102.07375 | 8494 ft | 217 kts | 118° |
| 2026-04-13 14:57 | 36.50991 | 102.08729 | 9164 ft | 218 kts | 148° |
| 2026-04-13 14:57 | 36.49530 | 102.09230 | 9840 ft | 222 kts | 178° |
| 2026-04-13 14:57 | 36.47982 | 102.08707 | 10180 ft | 242 kts | 210° |
| 2026-04-13 14:58 | 36.46381 | 102.05131 | 10611 ft | 249 kts | 271° |
| 2026-04-13 14:58 | 36.46782 | 102.03060 | 10614 ft | 248 kts | 292° |
| 2026-04-13 14:58 | 36.47471 | 102.01097 | 10617 ft | 247 kts | 295° |
| 2026-04-13 14:58 | 36.48188 | 101.99163 | 10611 ft | 247 kts | 294° |
| 2026-04-13 14:59 | 36.48815 | 101.97183 | 10608 ft | 246 kts | 290° |
| 2026-04-13 14:59 | 36.49406 | 101.95182 | 10605 ft | 246 kts | 290° |
| 2026-04-13 14:59 | 36.49988 | 101.93187 | 10611 ft | 246 kts | 290° |
| 2026-04-13 14:59 | 36.50573 | 101.91190 | 10602 ft | 246 kts | 290° |
| 2026-04-13 15:00 | 36.51156 | 101.89196 | 10608 ft | 245 kts | 290° |
| 2026-04-13 15:00 | 36.51948 | 101.87379 | 10590 ft | 236 kts | 314° |
| 2026-04-13 15:00 | 36.53232 | 101.86193 | 10472 ft | 223 kts | 340° |
| 2026-04-13 15:00 | 36.54709 | 101.86010 | 10122 ft | 209 kts | 15° |
| 2026-04-13 15:01 | 36.55959 | 101.86750 | 9798 ft | 195 kts | 43° |
| 2026-04-13 15:01 | 36.56734 | 101.88081 | 9436 ft | 186 kts | 71° |
| 2026-04-13 15:01 | 36.56918 | 101.89598 | 9227 ft | 172 kts | 95° |
| 2026-04-13 15:01 | 36.56631 | 101.90975 | 9031 ft | 160 kts | 108° |
| 2026-04-13 15:02 | 36.56273 | 101.92272 | 8800 ft | 154 kts | 108° |
| 2026-04-13 15:02 | 36.55927 | 101.93527 | 8589 ft | 153 kts | 107° |
| 2026-04-13 15:02 | 36.55607 | 101.94785 | 8391 ft | 152 kts | 110° |
| 2026-04-13 15:02 | 36.55189 | 101.95992 | 8195 ft | 152 kts | 112° |
| 2026-04-13 15:03 | 36.54844 | 101.97226 | 8028 ft | 151 kts | 104° |
| 2026-04-13 15:03 | 36.54544 | 101.98470 | 7835 ft | 150 kts | 107° |
| 2026-04-13 15:03 | 36.54213 | 101.99695 | 7631 ft | 149 kts | 108° |
| 2026-04-13 15:03 | 36.53878 | 102.00906 | 7434 ft | 148 kts | 108° |
| 2026-04-13 15:04 | 36.53544 | 102.02117 | 7250 ft | 148 kts | 109° |
| 2026-04-13 15:04 | 36.53228 | 102.03239 | 7208 ft | 119 kts | 109° |
| 2026-04-13 15:04 | 36.53017 | 102.04004 | 7195 ft | 69 kts | 109° |
| 2026-04-13 15:04 | 36.52907 | 102.04403 | 7190 ft | 34 kts | 109° |
| 2026-04-13 15:05 | 36.52840 | 102.04606 | 7191 ft | 22 kts | 119° |
| 2026-04-13 15:05 | 36.52739 | 102.04754 | 7183 ft | 21 kts | 138° |
| 2026-04-13 15:05 | 36.52672 | 102.04802 | 7181 ft | 11 kts | 179° |
| 2026-04-13 15:05 | 36.52641 | 102.04740 | 7184 ft | 8 kts | 285° |
| 2026-04-13 15:06 | 36.52654 | 102.04690 | 7185 ft | 4 kts | 289° |
| 2026-04-13 15:06 | 36.52663 | 102.04656 | 7181 ft | 6 kts | 289° |
| 2026-04-13 15:06 | 36.52667 | 102.04595 | 7187 ft | 8 kts | 245° |
| 2026-04-13 15:06 | 36.52614 | 102.04548 | 7187 ft | 8 kts | 248° |
| 2026-04-13 15:07 | 36.52621 | 102.04498 | 7187 ft | 4 kts | 289° |
| 2026-04-13 15:07 | 36.52624 | 102.04485 | 7187 ft | 0 kts | 288° |
| 2026-04-13 15:07 | 36.52630 | 102.04463 | 7190 ft | 6 kts | 288° |
| 2026-04-13 15:08 | 36.52639 | 102.04429 | 7189 ft | 3 kts | 288° |
| 2026-04-13 15:08 | 36.52651 | 102.04386 | 7187 ft | 4 kts | 289° |
| 2026-04-13 15:08 | 36.52661 | 102.04348 | 7194 ft | 5 kts | 285° |
| 2026-04-13 15:08 | 36.52657 | 102.04323 | 7195 ft | 2 kts | 250° |
| 2026-04-13 15:09 | 36.52648 | 102.04294 | 7196 ft | 9 kts | 250° |
| 2026-04-13 15:09 | 36.52624 | 102.04224 | 7195 ft | 7 kts | 247° |
| 2026-04-13 15:09 | 36.52619 | 102.04208 | 7194 ft | 0 kts | 247° |
| 2026-04-13 15:09 | 36.52618 | 102.04206 | 7194 ft | 0 kts | 247° |